首页
METAR-TAF:

METAR-TAF

机场 :

林茨, 奥地利

纬度: 48-14N, 经度: 014-11E, 海拔: 298米

当前天气观测

该预报发布于32分钟前的11:50 UTC
风速3节,风向西,在西南西转西北之间变化
温度 11°C
湿度 82%
气压 1010 hPa
能见度10公里或以上
少量云层高于1600英尺
多云层高于2700英尺

METAR: LOWL 281150Z 26003KT 230V290 9999 FEW016 BKN027 11/08 Q1010 NOSIG

时间: 14:22 (12:22 UTC)

预报

该预报发布于1小时和7分钟前的11:15 UTC
预报有效从28日的 12点(UTC)到 29日的 12点(UTC)
风速5节,风向西
能见度10公里或以上
少量云层高于2000英尺
多云层高于2800英尺
短暂存在
从 28日的 12点(UTC)到 29日的 06点(UTC)
小雨

TAF: LOWL 281115Z 2812/2912 27005KT 9999 FEW020 BKN028 TX16/2912Z TN09/2819Z TEMPO 2812/2906 -RA

超过4000个机场的气象观测和天气预报(METAR&TAF报告)。

可查询的气象台以黄色和红色小点在地图上表示。

将鼠标移到小点上方,可查看气象台名称。

然后点击查看天气观测和预报。

如需切换地图:点击带黑十字的绿色按钮放大地图;点击带横线的绿色按钮缩小地图;或者点击绿色箭头查看邻近地区的地图。


METAR-TAF: